Time;durP1;ratioP1;P1;durP2;ratioP2;P2;SDS_P1;SDS_P2;PMS_P1;PMS_P2;Temp;Humidity;BMP_temperature;BMP_pressure;BME280_temperature;BME280_humidity;BME280_pressure;Samples;Min_cycle;Max_cycle;Signal;HPM_P1;HPM_P2
2023/05/13 00:04:09;;;;;;;11.25;5.97;;;;;;;13.56;53.09;100777.09;10091437;29;20120;-73
2023/05/13 00:09:13;;;;;;;8.73;5.82;;;;;;;13.18;53.96;100785.78;10090821;29;20093;-73
2023/05/13 00:14:16;;;;;;;8.68;5.97;;;;;;;12.84;55.73;100780.59;10091064;29;20041;-73
2023/05/13 00:19:18;;;;;;;10.68;6.68;;;;;;;12.87;57.06;100774.09;10089586;29;20127;-73
2023/05/13 00:24:22;;;;;;;7.88;6.00;;;;;;;12.88;56.94;100781.16;10090539;29;20045;-73
2023/05/13 00:29:25;;;;;;;12.13;6.68;;;;;;;12.89;57.89;100772.97;10090188;29;20112;-73
2023/05/13 00:34:28;;;;;;;8.77;7.00;;;;;;;12.86;57.81;100777.75;10087876;29;20045;-73
2023/05/13 00:45:03;;;;;;;10.27;8.23;;;;;;;12.52;59.69;100784.13;11208493;23;20113;-74
2023/05/13 00:50:08;;;;;;;11.02;8.30;;;;;;;12.58;59.54;100782.75;10125194;29;20071;-74
2023/05/13 00:55:11;;;;;;;10.75;8.15;;;;;;;12.49;59.57;100791.63;10101565;29;20527;-74
2023/05/13 01:00:16;;;;;;;13.07;9.13;;;;;;;12.24;60.69;100798.13;10082533;29;20061;-74
2023/05/13 01:05:38;;;;;;;9.70;8.57;;;;;;;12.20;61.11;100793.97;10083232;29;20072;-74
2023/05/13 01:10:48;;;;;;;12.32;9.07;;;;;;;11.91;61.71;100795.34;10084679;29;20553;-74
2023/05/13 01:15:57;;;;;;;11.00;8.48;;;;;;;12.00;60.41;100791.06;10084900;29;20045;-74
2023/05/13 01:21:01;;;;;;;10.93;8.82;;;;;;;12.22;59.50;100783.94;10083980;29;20053;-74
2023/05/13 01:26:05;;;;;;;10.85;8.10;;;;;;;12.33;59.01;100784.78;10084722;29;20056;-74
2023/05/13 01:31:09;;;;;;;8.75;7.85;;;;;;;12.44;58.35;100783.91;10079568;29;20041;-74
2023/05/13 01:36:13;;;;;;;10.18;8.40;;;;;;;12.44;57.87;100783.91;10082769;29;20571;-74
2023/05/13 01:41:17;;;;;;;9.45;8.35;;;;;;;12.46;57.52;100786.47;10085533;29;20052;-74
2023/05/13 01:46:20;;;;;;;10.32;7.57;;;;;;;12.41;57.02;100794.09;10083630;29;20080;-74
2023/05/13 01:51:23;;;;;;;10.80;7.38;;;;;;;12.51;56.01;100792.34;10091969;29;20049;-75
2023/05/13 01:56:27;;;;;;;11.68;7.57;;;;;;;12.49;56.25;100792.47;10101158;29;20061;-75
2023/05/13 02:01:30;;;;;;;14.00;7.07;;;;;;;12.01;57.89;100784.69;10101025;29;20049;-74
2023/05/13 02:06:33;;;;;;;8.85;7.53;;;;;;;12.02;58.41;100790.94;10090009;29;20057;-75
2023/05/13 02:11:37;;;;;;;11.88;7.57;;;;;;;11.93;59.17;100793.41;10089998;29;20136;-75
2023/05/13 02:16:40;;;;;;;10.93;8.15;;;;;;;11.85;59.54;100797.69;10091932;29;20123;-75
2023/05/13 02:21:43;;;;;;;10.60;8.43;;;;;;;11.88;59.31;100798.28;10091422;29;20059;-75
2023/05/13 02:26:47;;;;;;;12.48;9.00;;;;;;;11.80;59.72;100795.34;10089574;29;20112;-74
2023/05/13 02:31:50;;;;;;;11.65;8.82;;;;;;;11.75;61.03;100796.69;10089702;29;20053;-75
2023/05/13 02:36:53;;;;;;;11.73;9.48;;;;;;;11.69;61.12;100796.19;10093305;29;20104;-75
2023/05/13 02:41:58;;;;;;;10.05;9.05;;;;;;;11.72;60.79;100787.88;10088983;29;20109;-75
2023/05/13 02:47:06;;;;;;;10.65;9.48;;;;;;;11.85;59.62;100778.84;10087229;29;20488;-74
2023/05/13 02:52:09;;;;;;;10.25;8.57;;;;;;;11.85;58.97;100779.69;10101736;29;20081;-73
2023/05/13 02:57:14;;;;;;;15.55;9.38;;;;;;;11.87;59.20;100783.09;10087408;29;20101;-75
2023/05/13 03:02:18;;;;;;;12.15;9.23;;;;;;;12.02;58.67;100783.72;10080355;29;21759;-73
2023/05/13 03:07:21;;;;;;;14.45;9.98;;;;;;;12.10;58.21;100785.78;10048002;29;20546;-74
2023/05/13 03:12:25;;;;;;;14.65;9.10;;;;;;;11.99;58.48;100788.50;10051053;29;20045;-75
2023/05/13 03:17:29;;;;;;;12.75;8.95;;;;;;;11.84;58.91;100791.41;10058357;29;20516;-75
2023/05/13 03:22:33;;;;;;;10.95;9.15;;;;;;;11.81;59.02;100794.34;10062139;29;20054;-75
2023/05/13 03:27:39;;;;;;;11.13;9.15;;;;;;;11.59;59.59;100795.22;10052915;29;20071;-75
2023/05/13 03:32:43;;;;;;;14.52;10.02;;;;;;;11.43;60.01;100797.38;10057540;29;21881;-75
2023/05/13 03:37:47;;;;;;;11.13;9.05;;;;;;;11.57;59.92;100810.59;10050803;29;20060;-74
2023/05/13 03:42:52;;;;;;;11.43;9.57;;;;;;;11.70;59.47;100808.66;10048482;29;20049;-74
2023/05/13 03:47:58;;;;;;;11.68;9.50;;;;;;;11.70;59.83;100805.97;10049691;29;20052;-75
2023/05/13 03:53:01;;;;;;;12.10;9.63;;;;;;;11.77;59.77;100806.38;10051824;29;20068;-73
2023/05/13 03:58:13;;;;;;;11.93;8.77;;;;;;;11.80;59.55;100807.97;10058406;29;20047;-74
2023/05/13 04:03:16;;;;;;;11.60;8.68;;;;;;;11.85;59.29;100812.00;10052193;29;20140;-74
2023/05/13 04:08:19;;;;;;;12.80;8.93;;;;;;;11.92;59.36;100817.72;10054178;29;20053;-74
2023/05/13 04:13:23;;;;;;;13.52;8.90;;;;;;;11.95;59.60;100818.34;10048561;29;20049;-75
2023/05/13 04:18:26;;;;;;;14.07;9.02;;;;;;;11.92;59.58;100810.50;10048934;29;20052;-73
2023/05/13 04:23:29;;;;;;;11.30;9.30;;;;;;;11.97;59.83;100817.38;10047081;29;20045;-74
2023/05/13 04:28:33;;;;;;;14.35;9.30;;;;;;;12.07;60.45;100824.59;10045605;29;20057;-74
2023/05/13 04:33:37;;;;;;;10.70;9.48;;;;;;;12.16;60.11;100823.84;10043958;29;20144;-75
2023/05/13 04:38:39;;;;;;;14.43;9.32;;;;;;;12.36;60.14;100832.16;10048216;29;20063;-74
2023/05/13 04:43:44;;;;;;;12.25;9.00;;;;;;;12.55;59.55;100840.47;10049342;29;20057;-75
2023/05/13 04:48:47;;;;;;;13.30;9.80;;;;;;;12.66;59.23;100839.56;10047842;29;20049;-74
2023/05/13 04:53:51;;;;;;;14.60;8.40;;;;;;;12.81;59.29;100841.00;10046421;29;20045;-74
2023/05/13 04:58:56;;;;;;;13.75;8.60;;;;;;;12.90;59.37;100838.53;10044918;29;20049;-74
2023/05/13 05:04:01;;;;;;;13.32;8.55;;;;;;;12.97;58.59;100845.97;10045148;29;20064;-74
2023/05/13 05:09:04;;;;;;;11.00;8.02;;;;;;;13.08;58.33;100841.50;10044063;29;20125;-74
2023/05/13 05:14:09;;;;;;;14.50;9.20;;;;;;;13.17;58.24;100838.91;10044323;29;20052;-74
2023/05/13 05:19:12;;;;;;;10.57;8.48;;;;;;;13.10;58.11;100853.03;10054400;29;20057;-74
2023/05/13 05:24:15;;;;;;;12.77;9.05;;;;;;;13.16;58.33;100844.41;10055862;29;20060;-75
2023/05/13 05:29:19;;;;;;;11.02;9.85;;;;;;;13.19;58.42;100855.81;10048304;29;20048;-75
2023/05/13 05:34:22;;;;;;;13.60;9.60;;;;;;;13.30;58.38;100849.47;10046079;29;20060;-74
2023/05/13 05:39:25;;;;;;;13.65;8.48;;;;;;;13.31;57.97;100855.75;10048072;29;20530;-74
2023/05/13 05:44:29;;;;;;;11.05;8.60;;;;;;;13.48;57.52;100847.09;10046873;29;20052;-74
2023/05/13 05:49:32;;;;;;;14.18;9.20;;;;;;;13.64;57.22;100854.72;10048021;29;20059;-74
2023/05/13 05:54:35;;;;;;;11.98;8.45;;;;;;;13.80;56.81;100855.09;10051168;29;20166;-74
2023/05/13 05:59:40;;;;;;;9.68;7.63;;;;;;;13.91;56.17;100846.06;10052630;29;20061;-74
2023/05/13 06:04:42;;;;;;;8.85;7.75;;;;;;;14.05;56.05;100848.41;10053803;29;20135;-74
2023/05/13 06:09:46;;;;;;;15.93;8.55;;;;;;;14.20;55.29;100851.56;10053239;29;20140;-74
2023/05/13 06:14:50;;;;;;;10.98;8.00;;;;;;;14.28;53.68;100850.91;10050665;29;20127;-74
2023/05/13 06:19:53;;;;;;;10.40;7.85;;;;;;;14.59;54.07;100852.59;10059231;29;20225;-74
2023/05/13 06:24:56;;;;;;;8.60;7.55;;;;;;;14.83;52.99;100854.03;10040798;29;20100;-74
2023/05/13 06:30:00;;;;;;;12.68;7.38;;;;;;;15.05;52.27;100856.47;10046886;29;21156;-74
2023/05/13 06:35:03;;;;;;;8.45;5.15;;;;;;;15.18;52.19;100858.03;10049672;29;20131;-75
2023/05/13 06:40:08;;;;;;;14.93;6.35;;;;;;;15.51;52.40;100859.47;10058709;29;20160;-74
2023/05/13 06:45:17;;;;;;;10.02;7.68;;;;;;;15.52;50.92;100858.44;10052012;29;20052;-75
2023/05/13 06:50:21;;;;;;;10.65;7.43;;;;;;;15.55;52.44;100855.47;10053932;29;20041;-74
2023/05/13 06:55:24;;;;;;;12.70;8.18;;;;;;;15.93;51.84;100859.06;10055366;29;20325;-74
2023/05/13 07:00:28;;;;;;;9.38;7.40;;;;;;;16.22;51.41;100858.97;10053877;29;20056;-74
2023/05/13 07:05:31;;;;;;;9.07;7.25;;;;;;;16.09;50.43;100862.00;10050071;29;20061;-75
2023/05/13 07:10:35;;;;;;;7.97;7.07;;;;;;;16.17;51.05;100873.97;10048323;29;20060;-75
2023/05/13 07:15:39;;;;;;;9.13;7.07;;;;;;;16.80;49.87;100865.94;10047478;29;20188;-75
2023/05/13 07:20:42;;;;;;;9.25;6.40;;;;;;;17.30;48.69;100868.13;10047047;29;20154;-74
2023/05/13 07:25:45;;;;;;;10.65;6.82;;;;;;;17.73;48.16;100862.88;10049105;29;20513;-75
2023/05/13 07:30:52;;;;;;;10.38;6.25;;;;;;;17.89;46.78;100863.81;10050309;29;20053;-74
2023/05/13 07:35:55;;;;;;;8.25;5.85;;;;;;;18.71;46.29;100858.75;10048742;29;20444;-74
2023/05/13 07:40:58;;;;;;;8.30;5.93;;;;;;;18.46;45.72;100863.28;10048204;29;20076;-74
2023/05/13 07:46:02;;;;;;;11.05;6.40;;;;;;;19.31;45.67;100856.81;10051521;29;20465;-73
2023/05/13 07:51:05;;;;;;;7.60;5.72;;;;;;;20.11;43.35;100852.28;10054231;29;20063;-73
2023/05/13 07:56:08;;;;;;;7.53;5.78;;;;;;;20.56;43.32;100855.38;10060423;29;20781;-73
2023/05/13 08:01:12;;;;;;;8.27;5.82;;;;;;;20.58;43.26;100847.84;10051719;29;20405;-75
2023/05/13 08:06:15;;;;;;;6.43;5.03;;;;;;;20.65;42.68;100845.25;10045573;29;21164;-75
2023/05/13 08:11:18;;;;;;;6.45;5.75;;;;;;;20.80;42.49;100848.94;10054160;29;21033;-75
2023/05/13 08:16:29;;;;;;;9.82;5.90;;;;;;;21.30;41.19;100847.56;10052683;29;20524;-73
2023/05/13 08:21:32;;;;;;;6.05;5.13;;;;;;;21.68;40.45;100844.81;10051379;29;20056;-73
2023/05/13 08:26:35;;;;;;;7.53;6.18;;;;;;;21.94;38.96;100841.69;10051963;29;20068;-73
2023/05/13 08:31:39;;;;;;;7.25;5.10;;;;;;;22.20;39.42;100851.28;10051563;29;20071;-73
2023/05/13 08:36:42;;;;;;;5.25;4.70;;;;;;;22.44;38.56;100847.44;10047881;29;20504;-73
2023/05/13 08:41:46;;;;;;;7.90;4.63;;;;;;;22.40;38.94;100838.69;10047099;29;20184;-74
2023/05/13 08:46:58;;;;;;;4.57;4.15;;;;;;;22.52;38.77;100839.97;10048608;29;20709;-73
2023/05/13 08:52:01;;;;;;;7.05;4.70;;;;;;;22.86;37.80;100834.84;10052050;29;21299;-73
2023/05/13 08:57:05;;;;;;;5.00;4.38;;;;;;;23.06;37.40;100824.09;10044928;29;20045;-73
2023/05/13 09:02:10;;;;;;;6.13;4.90;;;;;;;23.17;36.81;100829.91;10042208;29;20629;-74
2023/05/13 09:07:13;;;;;;;7.95;4.53;;;;;;;23.39;36.78;100832.63;10048501;29;20057;-73
2023/05/13 09:12:52;;;;;;;6.18;4.30;;;;;;;23.34;36.27;100824.16;10046981;29;20205;-73
2023/05/13 09:17:59;;;;;;;10.38;5.13;;;;;;;23.47;35.54;100820.69;10040971;29;20058;-72
2023/05/13 09:23:05;;;;;;;6.13;4.55;;;;;;;23.77;35.56;100829.56;10043696;29;20045;-73
2023/05/13 09:28:08;;;;;;;5.68;4.38;;;;;;;23.75;35.29;100828.88;10047263;29;20049;-73
2023/05/13 09:33:13;;;;;;;5.10;4.60;;;;;;;23.56;35.28;100831.31;10045665;29;20052;-74
2023/05/13 09:38:18;;;;;;;4.88;4.40;;;;;;;23.86;35.60;100823.75;10050690;29;20057;-73
2023/05/13 09:43:21;;;;;;;9.00;4.45;;;;;;;24.36;35.07;100829.06;10046080;29;20528;-72
2023/05/13 09:48:27;;;;;;;5.15;4.28;;;;;;;24.47;35.21;100823.00;10045547;29;20394;-73
2023/05/13 09:53:31;;;;;;;9.25;4.38;;;;;;;24.98;34.32;100816.16;10054542;29;20092;-74
2023/05/13 09:58:34;;;;;;;8.40;4.53;;;;;;;24.82;34.39;100819.28;10049343;29;20100;-73
2023/05/13 10:03:39;;;;;;;8.88;3.92;;;;;;;24.81;34.33;100818.47;10046022;29;20065;-72
2023/05/13 10:08:42;;;;;;;9.80;4.78;;;;;;;24.63;34.32;100815.44;10050127;29;20053;-73
2023/05/13 10:13:50;;;;;;;5.65;3.97;;;;;;;24.96;33.95;100819.13;10054228;29;20059;-73
2023/05/13 10:18:56;;;;;;;5.00;4.03;;;;;;;25.34;33.68;100818.56;10051008;29;20057;-74
2023/05/13 10:24:00;;;;;;;6.78;4.10;;;;;;;25.52;32.95;100817.91;10054860;29;20116;-74
2023/05/13 10:29:04;;;;;;;6.28;4.47;;;;;;;25.45;32.29;100805.22;10034056;29;20052;-74
2023/05/13 10:34:09;;;;;;;6.40;4.68;;;;;;;25.57;32.58;100798.84;10049672;29;20694;-73
2023/05/13 10:39:47;;;;;;;5.05;4.55;;;;;;;25.75;33.79;100800.13;10048611;29;20053;-73
2023/05/13 10:44:54;;;;;;;7.03;4.47;;;;;;;26.21;32.63;100805.47;10026394;29;20048;-74
2023/05/13 10:50:03;;;;;;;11.68;5.20;;;;;;;26.00;32.44;100792.88;10047690;29;20056;-73
2023/05/13 10:55:15;;;;;;;5.78;4.15;;;;;;;26.43;32.84;100800.53;10047285;29;20085;-74
2023/05/13 11:00:19;;;;;;;;;;;;;;;26.49;32.24;100799.69;10047782;29;20053;-74
2023/05/13 11:05:23;;;;;;;6.40;4.88;;;;;;;26.41;33.28;100790.81;10048543;29;20018;-74
2023/05/13 11:10:28;;;;;;;6.72;4.85;;;;;;;26.38;32.76;100791.25;10048773;29;20128;-74
2023/05/13 11:15:43;;;;;;;5.40;4.90;;;;;;;27.07;32.59;100786.81;10049726;29;20061;-74
2023/05/13 11:20:53;;;;;;;5.32;4.80;;;;;;;27.55;31.31;100783.47;10048766;29;20056;-73
2023/05/13 11:26:15;;;;;;;5.97;5.38;;;;;;;27.90;31.21;100764.41;10048528;29;20053;-74
2023/05/13 11:31:17;;;;;;;9.73;5.60;;;;;;;27.61;31.84;100771.50;10045786;29;20045;-74
2023/05/13 11:36:22;;;;;;;7.25;5.00;;;;;;;27.47;31.45;100779.06;10048631;29;20060;-74
2023/05/13 11:41:25;;;;;;;4.82;4.35;;;;;;;27.88;30.46;100768.47;10047356;29;20049;-73
2023/05/13 11:46:28;;;;;;;7.60;4.82;;;;;;;27.70;30.64;100766.53;10050879;29;21094;-74
2023/05/13 11:51:34;;;;;;;7.43;4.60;;;;;;;28.12;30.48;100770.31;10062214;29;20139;-74
2023/05/13 11:56:37;;;;;;;4.95;4.45;;;;;;;28.27;30.98;100762.47;10050461;29;20060;-74
2023/05/13 12:01:39;;;;;;;6.32;4.30;;;;;;;29.11;29.00;100767.25;10045598;29;20083;-74
2023/05/13 12:06:47;;;;;;;7.80;4.10;;;;;;;28.25;28.71;100767.41;10045050;29;20059;-74
2023/05/13 12:11:50;;;;;;;6.82;3.85;;;;;;;28.49;28.07;100764.72;10047063;29;20064;-74
2023/05/13 12:16:53;;;;;;;4.30;3.83;;;;;;;28.82;27.63;100761.50;10039158;29;20052;-74
2023/05/13 12:21:59;;;;;;;5.65;3.75;;;;;;;28.38;28.76;100758.06;10049279;29;20053;-74
2023/05/13 12:27:06;;;;;;;6.57;3.30;;;;;;;29.41;27.49;100761.59;10046169;29;20116;-74
2023/05/13 12:32:16;;;;;;;7.07;3.80;;;;;;;28.24;28.32;100765.69;10046054;29;20060;-74
2023/05/13 12:37:24;;;;;;;6.65;3.67;;;;;;;29.01;26.77;100758.66;10044414;29;20061;-73
2023/05/13 12:42:27;;;;;;;4.95;3.38;;;;;;;28.15;26.89;100761.56;10041845;29;20497;-74
2023/05/13 12:47:30;;;;;;;16.50;4.53;;;;;;;27.88;27.55;100762.94;10044410;29;20176;-73
2023/05/13 12:52:35;;;;;;;4.10;3.70;;;;;;;27.87;27.04;100761.28;10045966;29;20045;-74
2023/05/13 12:57:38;;;;;;;9.05;4.18;;;;;;;26.06;28.22;100760.88;10049236;29;20067;-73
2023/05/13 13:02:41;;;;;;;4.45;3.33;;;;;;;27.58;27.54;100760.94;10043604;29;20249;-74
2023/05/13 13:07:45;;;;;;;5.57;3.63;;;;;;;27.87;26.95;100753.81;10045344;29;20102;-74
2023/05/13 13:12:48;;;;;;;4.30;3.45;;;;;;;28.50;26.83;100755.38;10044265;29;20067;-73
2023/05/13 13:17:51;;;;;;;4.03;3.60;;;;;;;28.13;27.33;100743.56;10045832;29;20100;-74
2023/05/13 13:22:55;;;;;;;11.02;5.00;;;;;;;28.62;26.64;100739.69;10039502;29;20417;-74
2023/05/13 13:27:58;;;;;;;4.95;3.03;;;;;;;28.54;26.17;100744.72;10042129;29;20069;-73
2023/05/13 13:33:01;;;;;;;5.70;3.47;;;;;;;28.77;26.38;100743.94;10035659;29;20061;-73
2023/05/13 13:38:07;;;;;;;10.77;3.70;;;;;;;28.94;25.21;100740.25;10034791;29;20177;-73
2023/05/13 13:43:09;;;;;;;6.35;3.85;;;;;;;28.58;27.11;100740.38;10039715;29;20068;-75
2023/05/13 13:48:13;;;;;;;6.65;4.25;;;;;;;28.62;24.70;100734.16;10045864;29;20049;-75
2023/05/13 13:53:17;;;;;;;6.28;3.25;;;;;;;27.84;25.68;100726.69;10049982;29;20402;-75
2023/05/13 13:58:21;;;;;;;3.65;3.35;;;;;;;27.84;27.10;100729.44;10046428;29;20045;-74
2023/05/13 14:03:23;;;;;;;6.15;3.55;;;;;;;27.94;26.49;100721.44;10044440;29;20596;-74
2023/05/13 14:08:28;;;;;;;4.82;3.97;;;;;;;26.80;28.01;100726.38;10043950;29;20731;-74
2023/05/13 14:13:31;;;;;;;5.00;3.72;;;;;;;26.49;27.42;100719.81;10045296;29;20060;-72
2023/05/13 14:18:33;;;;;;;5.35;3.28;;;;;;;27.67;26.96;100725.59;10045910;29;20049;-73
2023/05/13 14:23:40;;;;;;;5.57;3.80;;;;;;;28.42;26.08;100717.03;10043572;29;20531;-75
2023/05/13 14:28:44;;;;;;;7.13;3.53;;;;;;;27.84;25.92;100710.13;10043549;29;20256;-74
2023/05/13 14:33:47;;;;;;;5.85;3.60;;;;;;;26.20;27.58;100704.69;10041175;29;20057;-75
2023/05/13 14:38:51;;;;;;;6.05;3.13;;;;;;;27.08;26.41;100714.94;10041294;29;20053;-74
2023/05/13 14:43:54;;;;;;;7.05;3.40;;;;;;;27.41;26.06;100710.19;10044423;29;20056;-74
2023/05/13 14:48:57;;;;;;;6.32;2.83;;;;;;;27.63;24.46;100711.44;10043564;29;20052;-75
2023/05/13 14:54:01;;;;;;;4.30;3.55;;;;;;;27.60;25.75;100711.91;10043769;29;20055;-76
2023/05/13 14:59:04;;;;;;;5.05;3.38;;;;;;;27.92;25.73;100715.34;10048344;29;20049;-76
2023/05/13 15:04:06;;;;;;;6.47;3.20;;;;;;;27.57;25.88;100696.63;10049648;29;20045;-76
2023/05/13 15:09:11;;;;;;;4.88;3.10;;;;;;;27.73;26.63;100692.44;10046271;29;20701;-76
2023/05/13 15:14:14;;;;;;;6.25;3.15;;;;;;;27.87;25.47;100686.75;10048418;29;20044;-76
2023/05/13 15:19:18;;;;;;;4.28;3.40;;;;;;;27.73;25.58;100700.72;10049081;29;20049;-76
2023/05/13 15:24:22;;;;;;;6.68;3.67;;;;;;;26.80;25.85;100703.50;10044988;29;20063;-76
2023/05/13 15:29:25;;;;;;;6.30;4.13;;;;;;;26.85;26.57;100688.00;10053222;29;20052;-76
2023/05/13 15:34:28;;;;;;;8.63;3.33;;;;;;;26.93;26.63;100697.88;10047056;29;20614;-77
2023/05/13 15:39:32;;;;;;;6.65;3.63;;;;;;;26.95;26.17;100690.22;10045679;29;20188;-76
2023/05/13 15:44:35;;;;;;;5.15;3.60;;;;;;;27.02;26.59;100679.16;10047206;29;20072;-76
2023/05/13 15:49:37;;;;;;;4.03;3.63;;;;;;;26.52;26.77;100696.47;10048632;29;20049;-76
2023/05/13 15:54:42;;;;;;;5.70;3.50;;;;;;;26.98;26.30;100689.78;10046418;29;20067;-76
2023/05/13 15:59:44;;;;;;;4.70;3.20;;;;;;;26.82;26.09;100685.66;10048422;29;20179;-76
2023/05/13 16:04:47;;;;;;;4.15;3.50;;;;;;;26.66;26.08;100689.81;10046326;29;20128;-77
2023/05/13 16:09:51;;;;;;;3.75;3.25;;;;;;;26.39;25.77;100693.81;10047153;29;20068;-76
2023/05/13 16:14:54;;;;;;;6.15;3.08;;;;;;;26.13;26.13;100681.00;10043071;29;21701;-76
2023/05/13 16:19:58;;;;;;;3.60;3.30;;;;;;;26.52;26.11;100680.81;10046887;29;20055;-76
2023/05/13 16:25:04;;;;;;;3.83;3.03;;;;;;;26.28;26.77;100676.09;10049687;29;20053;-76
2023/05/13 16:30:09;;;;;;;4.10;3.72;;;;;;;26.08;26.65;100678.91;10048026;29;21637;-76
2023/05/13 16:35:12;;;;;;;5.50;3.08;;;;;;;27.15;25.65;100676.25;10049874;29;20090;-76
2023/05/13 16:40:16;;;;;;;6.68;3.40;;;;;;;27.96;24.60;100675.16;10047444;29;20056;-76
2023/05/13 16:45:19;;;;;;;4.22;3.40;;;;;;;26.33;25.92;100676.28;10048397;29;20050;-76
2023/05/13 16:50:22;;;;;;;4.80;3.05;;;;;;;27.33;25.25;100673.53;10048215;29;20622;-75
2023/05/13 16:55:27;;;;;;;7.47;3.97;;;;;;;30.69;22.29;100659.00;10048975;29;20045;-76
2023/05/13 17:00:30;;;;;;;7.00;3.67;;;;;;;33.59;20.53;100656.06;10049139;29;20056;-76
2023/05/13 17:05:35;;;;;;;5.80;3.60;;;;;;;34.52;19.66;100653.25;10046688;29;21498;-76
2023/05/13 17:10:39;;;;;;;6.57;4.13;;;;;;;35.29;19.26;100650.41;10045439;29;20193;-76
2023/05/13 17:15:42;;;;;;;12.80;9.40;;;;;;;35.89;18.88;100653.28;10047002;29;20053;-76
2023/05/13 17:20:45;;;;;;;5.32;3.95;;;;;;;36.20;18.31;100647.50;10042425;29;20052;-75
2023/05/13 17:25:49;;;;;;;5.78;3.40;;;;;;;35.21;18.77;100645.41;10042839;29;21187;-76
2023/05/13 17:30:52;;;;;;;7.78;3.90;;;;;;;35.22;18.46;100645.16;10041541;29;20488;-76
2023/05/13 17:35:55;;;;;;;6.93;2.92;;;;;;;34.38;18.66;100644.59;10040676;29;20118;-76
2023/05/13 17:40:59;;;;;;;6.05;2.72;;;;;;;30.10;21.16;100639.91;10042181;29;20061;-75
2023/05/13 17:46:03;;;;;;;3.67;2.70;;;;;;;28.60;22.82;100644.28;10044239;29;20601;-75
2023/05/13 17:51:05;;;;;;;9.07;3.45;;;;;;;28.89;22.35;100648.06;10043592;29;20056;-76
2023/05/13 17:56:10;;;;;;;4.30;2.78;;;;;;;27.80;23.43;100650.94;10046090;29;20048;-75
2023/05/13 18:01:13;;;;;;;3.22;2.70;;;;;;;24.31;25.96;100658.63;10047114;29;20064;-75
2023/05/13 18:06:16;;;;;;;4.47;2.67;;;;;;;22.89;27.87;100661.91;10042930;29;20116;-76
2023/05/13 18:11:20;;;;;;;6.03;2.70;;;;;;;22.05;28.55;100666.16;10044147;29;20042;-75
2023/05/13 18:16:23;;;;;;;4.38;2.67;;;;;;;21.54;29.31;100668.00;10044011;29;20049;-75
2023/05/13 18:21:27;;;;;;;4.95;2.88;;;;;;;21.37;29.34;100667.34;10045445;29;20053;-75
2023/05/13 18:26:31;;;;;;;4.47;2.75;;;;;;;21.26;30.23;100667.81;10048613;29;20131;-75
2023/05/13 18:31:34;;;;;;;7.25;3.00;;;;;;;21.05;30.45;100674.84;10056040;29;20460;-76
2023/05/13 18:36:37;;;;;;;5.00;2.88;;;;;;;20.89;31.16;100680.44;10055179;29;20056;-76
2023/05/13 18:41:42;;;;;;;7.03;4.28;;;;;;;20.68;32.60;100682.00;10051523;29;20053;-75
2023/05/13 18:46:44;;;;;;;9.32;4.00;;;;;;;20.44;32.87;100684.91;10053351;29;20516;-75
2023/05/13 18:51:47;;;;;;;13.80;5.32;;;;;;;20.26;34.07;100679.72;10054346;29;20057;-75
2023/05/13 18:56:51;;;;;;;7.60;4.15;;;;;;;20.03;34.31;100685.16;10053461;29;20056;-75
2023/05/13 19:01:54;;;;;;;4.20;3.80;;;;;;;19.84;34.65;100695.47;10052088;29;20056;-76
2023/05/13 19:06:57;;;;;;;4.72;3.40;;;;;;;19.63;35.51;100696.06;10054244;29;20716;-76
2023/05/13 19:12:01;;;;;;;6.70;3.20;;;;;;;19.33;36.45;100699.53;10053831;29;20057;-76
2023/05/13 19:17:04;;;;;;;4.00;3.03;;;;;;;19.13;36.60;100699.91;10052207;29;20427;-76
2023/05/13 19:22:07;;;;;;;3.90;3.30;;;;;;;19.04;36.45;100717.28;10049377;29;20137;-76
2023/05/13 19:27:11;;;;;;;8.05;4.20;;;;;;;18.88;35.74;100711.84;10052791;29;20069;-76
2023/05/13 19:32:15;;;;;;;8.05;3.95;;;;;;;18.79;35.45;100711.03;10052222;29;20081;-76
2023/05/13 19:37:18;;;;;;;5.32;4.10;;;;;;;18.70;35.57;100704.66;10051765;29;20053;-76
2023/05/13 19:42:22;;;;;;;9.90;4.38;;;;;;;18.60;35.65;100716.75;10052113;29;20136;-76
2023/05/13 19:47:26;;;;;;;7.90;4.07;;;;;;;18.56;36.03;100713.50;10050372;29;20072;-75
2023/05/13 19:52:29;;;;;;;5.80;5.20;;;;;;;18.45;36.00;100719.28;10049015;29;20061;-75
2023/05/13 19:57:33;;;;;;;8.70;5.05;;;;;;;18.41;36.60;100720.66;10048460;29;20054;-75
2023/05/13 20:02:36;;;;;;;10.50;5.05;;;;;;;18.24;37.18;100720.63;10044864;29;20056;-75
2023/05/13 20:07:39;;;;;;;6.10;4.05;;;;;;;18.10;37.45;100724.84;10045249;29;20057;-75
2023/05/13 20:12:44;;;;;;;5.70;3.42;;;;;;;17.87;38.07;100721.81;10045997;29;20057;-75
2023/05/13 20:17:47;;;;;;;6.80;4.28;;;;;;;17.72;39.28;100720.75;10043885;29;20053;-75
2023/05/13 20:22:50;;;;;;;5.68;3.63;;;;;;;17.63;39.29;100711.69;10041949;29;20060;-75
2023/05/13 20:27:54;;;;;;;9.18;5.00;;;;;;;17.53;39.62;100715.56;10044069;29;20053;-75
2023/05/13 20:32:57;;;;;;;5.35;4.80;;;;;;;17.39;39.50;100706.16;10043450;29;20447;-75
2023/05/13 20:38:00;;;;;;;5.43;4.40;;;;;;;17.30;39.93;100709.81;10046013;29;20048;-75
2023/05/13 20:43:04;;;;;;;5.28;3.60;;;;;;;16.87;39.45;100722.41;10044532;29;20065;-75
2023/05/13 20:48:09;;;;;;;5.65;4.90;;;;;;;16.57;39.45;100724.50;10045313;29;20057;-75
2023/05/13 20:53:13;;;;;;;7.22;4.55;;;;;;;16.78;40.27;100733.19;10045507;29;20048;-75
2023/05/13 20:58:17;;;;;;;7.10;4.70;;;;;;;16.85;40.57;100732.53;10047014;29;20900;-75
2023/05/13 21:03:19;;;;;;;5.60;4.80;;;;;;;16.78;40.81;100730.47;10041473;29;20978;-75
2023/05/13 21:08:22;;;;;;;10.48;5.95;;;;;;;16.87;40.98;100727.81;10042851;29;20048;-75
2023/05/13 21:13:26;;;;;;;7.88;5.63;;;;;;;16.78;41.11;100735.88;10042033;29;20081;-75
2023/05/13 21:18:30;;;;;;;10.80;5.93;;;;;;;16.71;40.76;100742.94;10044774;29;20134;-75
2023/05/13 21:23:34;;;;;;;6.63;4.55;;;;;;;16.38;40.85;100740.91;10047629;29;20073;-75
2023/05/13 21:28:38;;;;;;;7.72;5.57;;;;;;;16.51;41.54;100735.94;10043465;29;20085;-75
2023/05/13 21:33:41;;;;;;;7.30;5.20;;;;;;;16.46;41.79;100731.00;10043301;29;20045;-75
2023/05/13 21:38:44;;;;;;;8.45;5.85;;;;;;;16.25;42.31;100731.25;10041537;29;20217;-75
2023/05/13 21:43:48;;;;;;;10.50;5.10;;;;;;;16.15;42.37;100730.47;10040311;29;20148;-75
2023/05/13 21:48:51;;;;;;;9.02;5.90;;;;;;;15.89;42.64;100730.34;10037577;29;20044;-75
2023/05/13 21:53:53;;;;;;;11.32;5.63;;;;;;;15.85;42.63;100731.63;10034329;29;20060;-75
2023/05/13 21:58:58;;;;;;;5.93;5.32;;;;;;;15.57;43.62;100741.59;10035958;29;20536;-75
2023/05/13 22:04:00;;;;;;;9.07;6.18;;;;;;;15.40;43.82;100733.25;10038729;29;20053;-75
2023/05/13 22:09:03;;;;;;;13.10;7.32;;;;;;;15.43;43.13;100734.81;10043998;29;21306;-75
2023/05/13 22:14:07;;;;;;;7.80;7.00;;;;;;;15.27;43.10;100735.38;10042549;29;20067;-75
2023/05/13 22:19:10;;;;;;;9.52;7.38;;;;;;;15.11;43.42;100740.53;10055575;29;20049;-75
2023/05/13 22:24:13;;;;;;;9.48;7.97;;;;;;;15.15;43.57;100729.28;10051732;29;20058;-75
2023/05/13 22:29:17;;;;;;;10.00;6.40;;;;;;;14.76;43.70;100737.47;10051744;29;20053;-75
2023/05/13 22:34:20;;;;;;;12.65;6.55;;;;;;;14.81;44.07;100735.19;10050274;29;20052;-75
2023/05/13 22:39:23;;;;;;;8.27;6.93;;;;;;;14.94;44.23;100736.72;10073850;29;20128;-75
2023/05/13 22:44:27;;;;;;;13.30;8.80;;;;;;;14.68;44.42;100737.34;10087553;29;20041;-75
2023/05/13 22:49:30;;;;;;;10.82;8.90;;;;;;;14.63;45.05;100736.91;10089728;29;20132;-75
2023/05/13 22:54:32;;;;;;;15.90;10.35;;;;;;;14.62;45.75;100745.13;10090577;29;20398;-75
2023/05/13 22:59:36;;;;;;;10.75;8.95;;;;;;;14.54;46.08;100743.16;10088857;29;20497;-75
2023/05/13 23:04:40;;;;;;;11.27;8.98;;;;;;;14.40;47.07;100735.44;10089076;29;20145;-75
2023/05/13 23:09:42;;;;;;;11.43;8.32;;;;;;;14.52;47.53;100743.28;10086842;29;20048;-75
2023/05/13 23:14:46;;;;;;;11.05;8.52;;;;;;;14.55;47.60;100742.16;10087300;29;20576;-75
2023/05/13 23:19:49;;;;;;;14.48;8.43;;;;;;;14.25;47.02;100735.84;10086317;29;20048;-75